sensor_id;sensor_type;location;lat;lon;timestamp;pressure;altitude;pressure_sealevel;temperature;humidity
12879;BME280;20617;49.476;10.986;2024-01-15T00:00:24;97034.72;;;-2.19;100.00
12879;BME280;20617;49.476;10.986;2024-01-15T00:02:25;97040.72;;;-2.25;100.00
12879;BME280;20617;49.476;10.986;2024-01-15T00:04:25;97032.84;;;-2.07;100.00
12879;BME280;20617;49.476;10.986;2024-01-15T00:06:26;97019.94;;;-1.91;100.00
12879;BME280;20617;49.476;10.986;2024-01-15T00:08:27;97012.41;;;-2.00;100.00
12879;BME280;20617;49.476;10.986;2024-01-15T00:10:27;96998.91;;;-2.10;100.00
12879;BME280;20617;49.476;10.986;2024-01-15T00:12:28;97019.44;;;-2.22;100.00
12879;BME280;20617;49.476;10.986;2024-01-15T00:14:29;97023.84;;;-2.35;100.00
12879;BME280;20617;49.476;10.986;2024-01-15T00:16:32;97008.53;;;-2.34;100.00
12879;BME280;20617;49.476;10.986;2024-01-15T00:18:33;97011.72;;;-2.16;100.00
12879;BME280;20617;49.476;10.986;2024-01-15T00:20:33;97002.28;;;-2.10;100.00
12879;BME280;20617;49.476;10.986;2024-01-15T00:22:34;97008.94;;;-1.98;100.00
12879;BME280;20617;49.476;10.986;2024-01-15T00:24:35;96998.59;;;-1.86;100.00
12879;BME280;20617;49.476;10.986;2024-01-15T00:26:36;97003.63;;;-1.81;100.00
12879;BME280;20617;49.476;10.986;2024-01-15T00:28:36;96995.94;;;-1.76;100.00
12879;BME280;20617;49.476;10.986;2024-01-15T00:30:37;97009.50;;;-1.74;100.00
12879;BME280;20617;49.476;10.986;2024-01-15T00:32:41;97009.56;;;-1.79;100.00
12879;BME280;20617;49.476;10.986;2024-01-15T00:34:42;96993.50;;;-1.86;100.00
12879;BME280;20617;49.476;10.986;2024-01-15T00:36:42;96986.56;;;-1.74;100.00
12879;BME280;20617;49.476;10.986;2024-01-15T00:38:44;96984.75;;;-1.69;100.00
12879;BME280;20617;49.476;10.986;2024-01-15T00:40:44;96980.47;;;-1.66;100.00
12879;BME280;20617;49.476;10.986;2024-01-15T00:42:45;96968.50;;;-1.62;100.00
12879;BME280;20617;49.476;10.986;2024-01-15T00:44:46;96957.72;;;-1.79;100.00
12879;BME280;20617;49.476;10.986;2024-01-15T00:46:46;96950.66;;;-1.64;100.00
12879;BME280;20617;49.476;10.986;2024-01-15T00:48:50;96944.66;;;-1.60;100.00
12879;BME280;20617;49.476;10.986;2024-01-15T00:50:50;96943.91;;;-1.66;100.00
12879;BME280;20617;49.476;10.986;2024-01-15T00:52:51;96943.09;;;-1.68;100.00
12879;BME280;20617;49.476;10.986;2024-01-15T00:54:52;96948.94;;;-1.63;100.00
12879;BME280;20617;49.476;10.986;2024-01-15T00:56:53;96943.25;;;-1.79;100.00
12879;BME280;20617;49.476;10.986;2024-01-15T00:58:53;96933.69;;;-1.66;100.00
12879;BME280;20617;49.476;10.986;2024-01-15T01:00:54;96941.34;;;-1.66;100.00
12879;BME280;20617;49.476;10.986;2024-01-15T01:02:55;96962.84;;;-1.83;100.00
12879;BME280;20617;49.476;10.986;2024-01-15T01:04:58;96979.03;;;-1.87;100.00
12879;BME280;20617;49.476;10.986;2024-01-15T01:06:59;96980.09;;;-2.00;100.00
12879;BME280;20617;49.476;10.986;2024-01-15T01:08:59;96995.34;;;-1.98;100.00
12879;BME280;20617;49.476;10.986;2024-01-15T01:11:00;96981.72;;;-1.94;100.00
12879;BME280;20617;49.476;10.986;2024-01-15T01:13:01;96985.91;;;-1.90;100.00
12879;BME280;20617;49.476;10.986;2024-01-15T01:15:02;96981.75;;;-1.97;100.00
12879;BME280;20617;49.476;10.986;2024-01-15T01:17:03;96975.75;;;-1.92;100.00
12879;BME280;20617;49.476;10.986;2024-01-15T01:19:04;96968.13;;;-1.96;100.00
12879;BME280;20617;49.476;10.986;2024-01-15T01:21:07;96977.31;;;-1.83;100.00
12879;BME280;20617;49.476;10.986;2024-01-15T01:23:08;96971.34;;;-1.84;100.00
12879;BME280;20617;49.476;10.986;2024-01-15T01:25:09;96974.66;;;-1.75;100.00
12879;BME280;20617;49.476;10.986;2024-01-15T01:27:09;96967.97;;;-1.84;100.00
12879;BME280;20617;49.476;10.986;2024-01-15T01:29:10;96973.84;;;-1.79;100.00
12879;BME280;20617;49.476;10.986;2024-01-15T01:31:12;96968.75;;;-1.77;100.00
12879;BME280;20617;49.476;10.986;2024-01-15T01:33:13;96960.06;;;-1.67;100.00
12879;BME280;20617;49.476;10.986;2024-01-15T01:35:16;96967.69;;;-1.63;100.00
12879;BME280;20617;49.476;10.986;2024-01-15T01:37:20;96973.06;;;-1.83;100.00
12879;BME280;20617;49.476;10.986;2024-01-15T01:39:20;96965.41;;;-1.84;100.00
12879;BME280;20617;49.476;10.986;2024-01-15T01:41:21;96971.31;;;-1.80;100.00
12879;BME280;20617;49.476;10.986;2024-01-15T01:43:22;96976.63;;;-1.94;100.00
12879;BME280;20617;49.476;10.986;2024-01-15T01:45:22;96972.41;;;-1.98;100.00
12879;BME280;20617;49.476;10.986;2024-01-15T01:47:23;96972.44;;;-2.01;100.00
12879;BME280;20617;49.476;10.986;2024-01-15T01:49:24;96962.25;;;-2.00;100.00
12879;BME280;20617;49.476;10.986;2024-01-15T01:51:26;96948.72;;;-2.07;100.00
12879;BME280;20617;49.476;10.986;2024-01-15T01:53:31;96950.41;;;-2.07;100.00
12879;BME280;20617;49.476;10.986;2024-01-15T01:55:32;96952.97;;;-2.07;100.00
12879;BME280;20617;49.476;10.986;2024-01-15T01:57:34;96951.16;;;-1.97;100.00
12879;BME280;20617;49.476;10.986;2024-01-15T01:59:36;96950.19;;;-1.90;100.00
12879;BME280;20617;49.476;10.986;2024-01-15T02:01:37;96946.84;;;-1.94;100.00
12879;BME280;20617;49.476;10.986;2024-01-15T02:03:38;96963.03;;;-1.98;100.00
12879;BME280;20617;49.476;10.986;2024-01-15T02:05:40;96961.41;;;-2.00;100.00
12879;BME280;20617;49.476;10.986;2024-01-15T02:07:43;96973.44;;;-2.13;100.00
12879;BME280;20617;49.476;10.986;2024-01-15T02:09:47;96969.22;;;-2.16;100.00
12879;BME280;20617;49.476;10.986;2024-01-15T02:11:49;96965.88;;;-2.19;100.00
12879;BME280;20617;49.476;10.986;2024-01-15T02:13:50;96960.69;;;-2.12;100.00
12879;BME280;20617;49.476;10.986;2024-01-15T02:15:51;96980.25;;;-2.12;100.00
12879;BME280;20617;49.476;10.986;2024-01-15T02:17:59;96960.66;;;-2.09;100.00
12879;BME280;20617;49.476;10.986;2024-01-15T02:20:00;96967.44;;;-2.06;100.00
12879;BME280;20617;49.476;10.986;2024-01-15T02:22:00;96964.00;;;-2.07;100.00
12879;BME280;20617;49.476;10.986;2024-01-15T02:24:04;96959.66;;;-1.97;100.00
12879;BME280;20617;49.476;10.986;2024-01-15T02:26:05;96947.78;;;-1.99;100.00
12879;BME280;20617;49.476;10.986;2024-01-15T02:28:07;96941.84;;;-2.01;100.00
12879;BME280;20617;49.476;10.986;2024-01-15T02:30:11;96951.16;;;-1.97;100.00
12879;BME280;20617;49.476;10.986;2024-01-15T02:32:12;96953.75;;;-2.00;100.00
12879;BME280;20617;49.476;10.986;2024-01-15T02:34:13;96955.50;;;-2.06;100.00
12879;BME280;20617;49.476;10.986;2024-01-15T02:36:14;96963.88;;;-1.94;100.00
12879;BME280;20617;49.476;10.986;2024-01-15T02:38:15;96957.91;;;-1.93;100.00
12879;BME280;20617;49.476;10.986;2024-01-15T02:40:19;96954.41;;;-1.89;100.00
12879;BME280;20617;49.476;10.986;2024-01-15T02:42:20;96953.66;;;-1.94;100.00
12879;BME280;20617;49.476;10.986;2024-01-15T02:44:20;96959.53;;;-1.89;100.00
12879;BME280;20617;49.476;10.986;2024-01-15T02:46:21;96956.09;;;-1.87;100.00
12879;BME280;20617;49.476;10.986;2024-01-15T02:48:22;96959.56;;;-1.92;100.00
12879;BME280;20617;49.476;10.986;2024-01-15T02:50:22;96963.00;;;-1.92;100.00
12879;BME280;20617;49.476;10.986;2024-01-15T02:52:23;96967.09;;;-1.82;100.00
12879;BME280;20617;49.476;10.986;2024-01-15T02:54:24;96963.56;;;-1.73;100.00
12879;BME280;20617;49.476;10.986;2024-01-15T02:56:27;96968.72;;;-1.76;100.00
12879;BME280;20617;49.476;10.986;2024-01-15T02:58:28;96973.72;;;-1.70;100.00
12879;BME280;20617;49.476;10.986;2024-01-15T03:00:29;96968.59;;;-1.68;100.00
12879;BME280;20617;49.476;10.986;2024-01-15T03:02:29;96965.19;;;-1.66;100.00
12879;BME280;20617;49.476;10.986;2024-01-15T03:04:30;96977.94;;;-1.66;100.00
12879;BME280;20617;49.476;10.986;2024-01-15T03:06:31;96966.06;;;-1.70;100.00
12879;BME280;20617;49.476;10.986;2024-01-15T03:08:31;96970.28;;;-1.66;100.00
12879;BME280;20617;49.476;10.986;2024-01-15T03:10:32;96966.16;;;-1.76;100.00
12879;BME280;20617;49.476;10.986;2024-01-15T03:12:35;96971.25;;;-1.76;100.00
12879;BME280;20617;49.476;10.986;2024-01-15T03:14:36;96963.47;;;-1.67;100.00
12879;BME280;20617;49.476;10.986;2024-01-15T03:16:37;96965.22;;;-1.72;100.00
12879;BME280;20617;49.476;10.986;2024-01-15T03:18:37;96965.31;;;-1.78;100.00
12879;BME280;20617;49.476;10.986;2024-01-15T03:20:39;96961.88;;;-1.74;100.00
12879;BME280;20617;49.476;10.986;2024-01-15T03:22:39;96961.00;;;-1.73;100.00
12879;BME280;20617;49.476;10.986;2024-01-15T03:24:40;96951.69;;;-1.74;100.00
12879;BME280;20617;49.476;10.986;2024-01-15T03:26:41;96953.34;;;-1.71;100.00
12879;BME280;20617;49.476;10.986;2024-01-15T03:28:44;96941.38;;;-1.68;100.00
12879;BME280;20617;49.476;10.986;2024-01-15T03:30:45;96947.22;;;-1.61;100.00
12879;BME280;20617;49.476;10.986;2024-01-15T03:32:46;96942.13;;;-1.61;100.00
12879;BME280;20617;49.476;10.986;2024-01-15T03:34:46;96945.69;;;-1.71;100.00
12879;BME280;20617;49.476;10.986;2024-01-15T03:36:47;96936.22;;;-1.65;100.00
12879;BME280;20617;49.476;10.986;2024-01-15T03:38:48;96936.09;;;-1.55;100.00
12879;BME280;20617;49.476;10.986;2024-01-15T03:40:49;96934.41;;;-1.58;100.00
12879;BME280;20617;49.476;10.986;2024-01-15T03:42:49;96931.09;;;-1.62;100.00
12879;BME280;20617;49.476;10.986;2024-01-15T03:44:53;96924.25;;;-1.61;100.00
12879;BME280;20617;49.476;10.986;2024-01-15T03:46:53;96918.13;;;-1.48;100.00
12879;BME280;20617;49.476;10.986;2024-01-15T03:48:54;96914.63;;;-1.42;100.00
12879;BME280;20617;49.476;10.986;2024-01-15T03:50:55;96918.94;;;-1.47;100.00
12879;BME280;20617;49.476;10.986;2024-01-15T03:52:55;96909.63;;;-1.50;100.00
12879;BME280;20617;49.476;10.986;2024-01-15T03:54:56;96912.13;;;-1.45;100.00
12879;BME280;20617;49.476;10.986;2024-01-15T03:56:57;96915.53;;;-1.46;100.00
12879;BME280;20617;49.476;10.986;2024-01-15T03:58:58;96924.94;;;-1.51;100.00
12879;BME280;20617;49.476;10.986;2024-01-15T04:01:01;96916.47;;;-1.52;100.00
12879;BME280;20617;49.476;10.986;2024-01-15T04:03:02;96925.69;;;-1.43;100.00
12879;BME280;20617;49.476;10.986;2024-01-15T04:05:03;96917.06;;;-1.36;100.00
12879;BME280;20617;49.476;10.986;2024-01-15T04:07:04;96923.03;;;-1.37;100.00
12879;BME280;20617;49.476;10.986;2024-01-15T04:09:05;96921.41;;;-1.41;100.00
12879;BME280;20617;49.476;10.986;2024-01-15T04:11:05;96922.22;;;-1.39;100.00
12879;BME280;20617;49.476;10.986;2024-01-15T04:13:06;96927.28;;;-1.38;100.00
12879;BME280;20617;49.476;10.986;2024-01-15T04:15:07;96924.69;;;-1.34;100.00
12879;BME280;20617;49.476;10.986;2024-01-15T04:17:11;96928.28;;;-1.45;100.00
12879;BME280;20617;49.476;10.986;2024-01-15T04:19:11;96910.34;;;-1.42;100.00
12879;BME280;20617;49.476;10.986;2024-01-15T04:21:12;96923.06;;;-1.39;100.00
12879;BME280;20617;49.476;10.986;2024-01-15T04:23:13;96923.06;;;-1.39;100.00
12879;BME280;20617;49.476;10.986;2024-01-15T04:25:14;96930.88;;;-1.48;100.00
12879;BME280;20617;49.476;10.986;2024-01-15T04:27:14;96936.78;;;-1.44;100.00
12879;BME280;20617;49.476;10.986;2024-01-15T04:29:15;96941.00;;;-1.43;100.00
12879;BME280;20617;49.476;10.986;2024-01-15T04:31:23;96940.00;;;-1.33;100.00
12879;BME280;20617;49.476;10.986;2024-01-15T04:33:26;96942.59;;;-1.36;100.00
12879;BME280;20617;49.476;10.986;2024-01-15T04:35:27;96935.72;;;-1.31;100.00
12879;BME280;20617;49.476;10.986;2024-01-15T04:37:28;96926.34;;;-1.30;100.00
12879;BME280;20617;49.476;10.986;2024-01-15T04:39:29;96931.34;;;-1.24;100.00
12879;BME280;20617;49.476;10.986;2024-01-15T04:41:30;96929.63;;;-1.25;100.00
12879;BME280;20617;49.476;10.986;2024-01-15T04:43:30;96938.22;;;-1.29;100.00
12879;BME280;20617;49.476;10.986;2024-01-15T04:45:31;96937.28;;;-1.25;100.00
12879;BME280;20617;49.476;10.986;2024-01-15T04:47:32;96931.34;;;-1.26;100.00
12879;BME280;20617;49.476;10.986;2024-01-15T04:49:35;96938.28;;;-1.31;100.00
12879;BME280;20617;49.476;10.986;2024-01-15T04:51:36;96941.59;;;-1.27;100.00
12879;BME280;20617;49.476;10.986;2024-01-15T04:53:37;96939.78;;;-1.19;100.00
12879;BME280;20617;49.476;10.986;2024-01-15T04:55:37;96929.50;;;-1.16;100.00
12879;BME280;20617;49.476;10.986;2024-01-15T04:57:38;96920.13;;;-1.17;100.00
12879;BME280;20617;49.476;10.986;2024-01-15T04:59:39;96918.41;;;-1.15;100.00
12879;BME280;20617;49.476;10.986;2024-01-15T05:01:39;96913.47;;;-1.24;100.00
12879;BME280;20617;49.476;10.986;2024-01-15T05:03:40;96908.22;;;-1.17;100.00
12879;BME280;20617;49.476;10.986;2024-01-15T05:05:43;96909.03;;;-1.13;100.00
12879;BME280;20617;49.476;10.986;2024-01-15T05:07:44;96901.25;;;-1.08;100.00
12879;BME280;20617;49.476;10.986;2024-01-15T05:09:45;96892.75;;;-1.07;100.00
12879;BME280;20617;49.476;10.986;2024-01-15T05:11:45;96883.22;;;-0.99;100.00
12879;BME280;20617;49.476;10.986;2024-01-15T05:13:46;96893.38;;;-0.95;100.00
12879;BME280;20617;49.476;10.986;2024-01-15T05:15:47;96906.25;;;-1.01;100.00
12879;BME280;20617;49.476;10.986;2024-01-15T05:17:47;96902.75;;;-0.95;100.00
12879;BME280;20617;49.476;10.986;2024-01-15T05:19:48;96907.84;;;-0.95;100.00
12879;BME280;20617;49.476;10.986;2024-01-15T05:21:51;96907.09;;;-1.00;100.00
12879;BME280;20617;49.476;10.986;2024-01-15T05:23:52;96901.31;;;-1.10;100.00
12879;BME280;20617;49.476;10.986;2024-01-15T05:25:53;96905.47;;;-1.06;100.00
12879;BME280;20617;49.476;10.986;2024-01-15T05:27:53;96906.38;;;-1.08;100.00
12879;BME280;20617;49.476;10.986;2024-01-15T05:29:54;96904.59;;;-1.03;100.00
12879;BME280;20617;49.476;10.986;2024-01-15T05:31:55;96901.25;;;-1.08;100.00
12879;BME280;20617;49.476;10.986;2024-01-15T05:33:55;96905.53;;;-1.07;100.00
12879;BME280;20617;49.476;10.986;2024-01-15T05:35:56;96895.38;;;-1.14;100.00
12879;BME280;20617;49.476;10.986;2024-01-15T05:37:59;96898.81;;;-1.13;100.00
12879;BME280;20617;49.476;10.986;2024-01-15T05:40:00;96896.19;;;-1.10;100.00
12879;BME280;20617;49.476;10.986;2024-01-15T05:42:01;96885.00;;;-1.03;100.00
12879;BME280;20617;49.476;10.986;2024-01-15T05:44:01;96889.03;;;-0.91;100.00
12879;BME280;20617;49.476;10.986;2024-01-15T05:46:02;96883.03;;;-0.88;100.00
12879;BME280;20617;49.476;10.986;2024-01-15T05:48:03;96879.47;;;-0.80;100.00
12879;BME280;20617;49.476;10.986;2024-01-15T05:50:05;96881.28;;;-0.86;100.00
12879;BME280;20617;49.476;10.986;2024-01-15T05:52:06;96883.63;;;-0.76;100.00
12879;BME280;20617;49.476;10.986;2024-01-15T05:54:09;96886.22;;;-0.77;100.00
12879;BME280;20617;49.476;10.986;2024-01-15T05:56:10;96882.84;;;-0.78;100.00
12879;BME280;20617;49.476;10.986;2024-01-15T05:58:11;96879.28;;;-0.71;100.00
12879;BME280;20617;49.476;10.986;2024-01-15T06:00:13;96883.41;;;-0.63;100.00
12879;BME280;20617;49.476;10.986;2024-01-15T06:02:13;96880.16;;;-0.72;100.00
12879;BME280;20617;49.476;10.986;2024-01-15T06:04:14;96872.38;;;-0.67;100.00
12879;BME280;20617;49.476;10.986;2024-01-15T06:06:15;96883.47;;;-0.68;100.00
12879;BME280;20617;49.476;10.986;2024-01-15T06:08:15;96868.19;;;-0.70;100.00
12879;BME280;20617;49.476;10.986;2024-01-15T06:10:19;96881.75;;;-0.68;100.00
12879;BME280;20617;49.476;10.986;2024-01-15T06:12:19;96891.91;;;-0.63;100.00
12879;BME280;20617;49.476;10.986;2024-01-15T06:14:20;96892.00;;;-0.68;100.00
12879;BME280;20617;49.476;10.986;2024-01-15T06:16:21;96891.25;;;-0.73;100.00
12879;BME280;20617;49.476;10.986;2024-01-15T06:18:22;96900.66;;;-0.76;100.00
12879;BME280;20617;49.476;10.986;2024-01-15T06:20:22;96887.94;;;-0.78;100.00
12879;BME280;20617;49.476;10.986;2024-01-15T06:22:23;96897.38;;;-0.81;100.00
12879;BME280;20617;49.476;10.986;2024-01-15T06:24:24;96895.69;;;-0.82;100.00
12879;BME280;20617;49.476;10.986;2024-01-15T06:26:27;96903.41;;;-0.85;100.00
12879;BME280;20617;49.476;10.986;2024-01-15T06:28:28;96905.94;;;-0.84;100.00
12879;BME280;20617;49.476;10.986;2024-01-15T06:30:28;96911.19;;;-0.92;100.00
12879;BME280;20617;49.476;10.986;2024-01-15T06:32:29;96915.34;;;-0.87;100.00
12879;BME280;20617;49.476;10.986;2024-01-15T06:34:30;96901.84;;;-0.93;100.00
12879;BME280;20617;49.476;10.986;2024-01-15T06:36:30;96920.84;;;-1.07;100.00
12879;BME280;20617;49.476;10.986;2024-01-15T06:38:31;96915.69;;;-1.04;100.00
12879;BME280;20617;49.476;10.986;2024-01-15T06:40:32;96913.13;;;-1.04;100.00
12879;BME280;20617;49.476;10.986;2024-01-15T06:42:35;96903.75;;;-1.04;100.00
12879;BME280;20617;49.476;10.986;2024-01-15T06:44:36;96913.03;;;-1.00;100.00
12879;BME280;20617;49.476;10.986;2024-01-15T06:46:41;96911.31;;;-0.98;100.00
12879;BME280;20617;49.476;10.986;2024-01-15T06:48:42;96904.47;;;-0.97;100.00
12879;BME280;20617;49.476;10.986;2024-01-15T06:50:42;96906.13;;;-0.95;100.00
12879;BME280;20617;49.476;10.986;2024-01-15T06:52:43;96905.31;;;-0.97;100.00
12879;BME280;20617;49.476;10.986;2024-01-15T06:54:45;96906.06;;;-0.90;100.00
12879;BME280;20617;49.476;10.986;2024-01-15T06:56:46;96896.75;;;-0.94;100.00
12879;BME280;20617;49.476;10.986;2024-01-15T06:58:49;96906.16;;;-0.96;100.00
12879;BME280;20617;49.476;10.986;2024-01-15T07:00:50;96898.34;;;-0.88;100.00
12879;BME280;20617;49.476;10.986;2024-01-15T07:02:51;96903.44;;;-0.87;100.00
12879;BME280;20617;49.476;10.986;2024-01-15T07:04:52;96909.22;;;-0.79;100.00
12879;BME280;20617;49.476;10.986;2024-01-15T07:06:52;96911.91;;;-0.85;100.00
12879;BME280;20617;49.476;10.986;2024-01-15T07:08:53;96915.94;;;-0.72;100.00
12879;BME280;20617;49.476;10.986;2024-01-15T07:10:54;96909.03;;;-0.68;100.00
12879;BME280;20617;49.476;10.986;2024-01-15T07:12:54;96910.81;;;-0.72;100.00
12879;BME280;20617;49.476;10.986;2024-01-15T07:14:58;96919.19;;;-0.63;100.00
12879;BME280;20617;49.476;10.986;2024-01-15T07:16:59;96916.81;;;-0.74;100.00
12879;BME280;20617;49.476;10.986;2024-01-15T07:19:00;96924.53;;;-0.77;100.00
12879;BME280;20617;49.476;10.986;2024-01-15T07:21:03;96929.78;;;-0.85;100.00
12879;BME280;20617;49.476;10.986;2024-01-15T07:23:04;96931.63;;;-0.92;100.00
12879;BME280;20617;49.476;10.986;2024-01-15T07:25:05;96927.19;;;-0.82;100.00
12879;BME280;20617;49.476;10.986;2024-01-15T07:27:06;96932.34;;;-0.85;100.00
12879;BME280;20617;49.476;10.986;2024-01-15T07:29:08;96931.50;;;-0.84;100.00
12879;BME280;20617;49.476;10.986;2024-01-15T07:31:12;96934.00;;;-0.82;100.00
12879;BME280;20617;49.476;10.986;2024-01-15T07:33:12;96929.00;;;-0.87;100.00
12879;BME280;20617;49.476;10.986;2024-01-15T07:35:14;96934.91;;;-0.85;100.00
12879;BME280;20617;49.476;10.986;2024-01-15T07:37:14;96935.84;;;-0.89;100.00
12879;BME280;20617;49.476;10.986;2024-01-15T07:39:15;96935.91;;;-0.94;100.00
12879;BME280;20617;49.476;10.986;2024-01-15T07:41:16;96946.13;;;-0.94;100.00
12879;BME280;20617;49.476;10.986;2024-01-15T07:43:17;96952.88;;;-0.89;100.00
12879;BME280;20617;49.476;10.986;2024-01-15T07:45:18;96949.63;;;-0.99;100.00
12879;BME280;20617;49.476;10.986;2024-01-15T07:47:21;96952.00;;;-0.88;100.00
12879;BME280;20617;49.476;10.986;2024-01-15T07:49:22;96951.88;;;-0.81;100.00
12879;BME280;20617;49.476;10.986;2024-01-15T07:51:22;96959.56;;;-0.82;100.00
12879;BME280;20617;49.476;10.986;2024-01-15T07:53:23;96959.47;;;-0.78;100.00
12879;BME280;20617;49.476;10.986;2024-01-15T07:55:24;96955.03;;;-0.66;100.00
12879;BME280;20617;49.476;10.986;2024-01-15T07:57:25;96960.00;;;-0.60;100.00
12879;BME280;20617;49.476;10.986;2024-01-15T07:59:27;96961.09;;;-0.72;100.00
12879;BME280;20617;49.476;10.986;2024-01-15T08:01:27;96959.25;;;-0.65;100.00
12879;BME280;20617;49.476;10.986;2024-01-15T08:03:31;96952.38;;;-0.62;100.00
12879;BME280;20617;49.476;10.986;2024-01-15T08:05:32;96952.47;;;-0.68;100.00
12879;BME280;20617;49.476;10.986;2024-01-15T08:07:32;96954.16;;;-0.67;100.00
12879;BME280;20617;49.476;10.986;2024-01-15T08:09:33;96948.19;;;-0.66;100.00
12879;BME280;20617;49.476;10.986;2024-01-15T08:11:34;96947.25;;;-0.62;100.00
12879;BME280;20617;49.476;10.986;2024-01-15T08:13:34;96941.31;;;-0.62;100.00
12879;BME280;20617;49.476;10.986;2024-01-15T08:15:35;96943.81;;;-0.59;100.00
12879;BME280;20617;49.476;10.986;2024-01-15T08:17:36;96935.31;;;-0.61;100.00
12879;BME280;20617;49.476;10.986;2024-01-15T08:19:39;96936.19;;;-0.62;100.00
12879;BME280;20617;49.476;10.986;2024-01-15T08:21:40;96931.78;;;-0.56;100.00
12879;BME280;20617;49.476;10.986;2024-01-15T08:23:40;96928.41;;;-0.56;100.00
12879;BME280;20617;49.476;10.986;2024-01-15T08:25:41;96933.44;;;-0.53;100.00
12879;BME280;20617;49.476;10.986;2024-01-15T08:27:42;96928.16;;;-0.44;100.00
12879;BME280;20617;49.476;10.986;2024-01-15T08:29:42;96926.47;;;-0.43;100.00
12879;BME280;20617;49.476;10.986;2024-01-15T08:31:43;96922.28;;;-0.48;100.00
12879;BME280;20617;49.476;10.986;2024-01-15T08:33:44;96918.66;;;-0.37;100.00
12879;BME280;20617;49.476;10.986;2024-01-15T08:35:47;96922.06;;;-0.37;100.00
12879;BME280;20617;49.476;10.986;2024-01-15T08:37:49;96924.63;;;-0.38;100.00
12879;BME280;20617;49.476;10.986;2024-01-15T08:39:49;96918.69;;;-0.39;100.00
12879;BME280;20617;49.476;10.986;2024-01-15T08:41:50;96914.41;;;-0.38;100.00
12879;BME280;20617;49.476;10.986;2024-01-15T08:43:51;96913.63;;;-0.42;100.00
12879;BME280;20617;49.476;10.986;2024-01-15T08:45:51;96916.13;;;-0.39;100.00
12879;BME280;20617;49.476;10.986;2024-01-15T08:47:52;96905.81;;;-0.34;100.00
12879;BME280;20617;49.476;10.986;2024-01-15T08:49:53;96918.53;;;-0.31;100.00
12879;BME280;20617;49.476;10.986;2024-01-15T08:51:56;96914.88;;;-0.19;100.00
12879;BME280;20617;49.476;10.986;2024-01-15T08:53:57;96914.75;;;-0.13;100.00
12879;BME280;20617;49.476;10.986;2024-01-15T08:55:58;96914.69;;;-0.10;100.00
12879;BME280;20617;49.476;10.986;2024-01-15T08:57:58;96917.25;;;-0.10;100.00
12879;BME280;20617;49.476;10.986;2024-01-15T08:59:59;96919.81;;;-0.10;100.00
12879;BME280;20617;49.476;10.986;2024-01-15T09:02:00;96915.50;;;-0.08;100.00
12879;BME280;20617;49.476;10.986;2024-01-15T09:04:01;96902.75;;;-0.10;100.00
12879;BME280;20617;49.476;10.986;2024-01-15T09:06:01;96910.19;;;-0.01;100.00
12879;BME280;20617;49.476;10.986;2024-01-15T09:08:05;96908.63;;;-0.06;100.00
12879;BME280;20617;49.476;10.986;2024-01-15T09:10:07;96918.69;;;0.02;100.00
12879;BME280;20617;49.476;10.986;2024-01-15T09:12:08;96914.31;;;0.07;100.00
12879;BME280;20617;49.476;10.986;2024-01-15T09:14:09;96913.50;;;0.06;100.00
12879;BME280;20617;49.476;10.986;2024-01-15T09:16:09;96927.06;;;0.08;100.00
12879;BME280;20617;49.476;10.986;2024-01-15T09:18:10;96924.56;;;0.07;100.00
12879;BME280;20617;49.476;10.986;2024-01-15T09:20:11;96921.25;;;0.03;100.00
12879;BME280;20617;49.476;10.986;2024-01-15T09:22:12;96915.97;;;0.09;100.00
12879;BME280;20617;49.476;10.986;2024-01-15T09:24:15;96907.31;;;0.15;100.00
12879;BME280;20617;49.476;10.986;2024-01-15T09:26:16;96908.44;;;0.03;100.00
12879;BME280;20617;49.476;10.986;2024-01-15T09:28:17;96913.59;;;0.02;100.00
12879;BME280;20617;49.476;10.986;2024-01-15T09:30:18;96918.50;;;0.11;100.00
12879;BME280;20617;49.476;10.986;2024-01-15T09:32:18;96912.38;;;0.18;100.00
12879;BME280;20617;49.476;10.986;2024-01-15T09:34:19;96917.31;;;0.26;100.00
12879;BME280;20617;49.476;10.986;2024-01-15T09:36:20;96913.97;;;0.24;100.00
12879;BME280;20617;49.476;10.986;2024-01-15T09:38:20;96913.22;;;0.18;100.00
12879;BME280;20617;49.476;10.986;2024-01-15T09:40:25;96912.22;;;0.24;100.00
12879;BME280;20617;49.476;10.986;2024-01-15T09:42:31;96901.88;;;0.29;100.00
12879;BME280;20617;49.476;10.986;2024-01-15T09:44:32;96900.03;;;0.35;100.00
12879;BME280;20617;49.476;10.986;2024-01-15T09:46:33;96903.66;;;0.25;100.00
12879;BME280;20617;49.476;10.986;2024-01-15T09:48:34;96905.41;;;0.25;100.00
12879;BME280;20617;49.476;10.986;2024-01-15T09:50:34;96908.72;;;0.28;100.00
12879;BME280;20617;49.476;10.986;2024-01-15T09:52:36;96901.94;;;0.26;100.00
12879;BME280;20617;49.476;10.986;2024-01-15T09:54:37;96900.19;;;0.28;100.00
12879;BME280;20617;49.476;10.986;2024-01-15T09:56:40;96916.47;;;0.25;100.00
12879;BME280;20617;49.476;10.986;2024-01-15T09:58:41;96913.00;;;0.28;100.00
12879;BME280;20617;49.476;10.986;2024-01-15T10:00:44;96909.47;;;0.32;100.00
12879;BME280;20617;49.476;10.986;2024-01-15T10:02:45;96909.56;;;0.29;100.00
12879;BME280;20617;49.476;10.986;2024-01-15T10:04:46;96916.50;;;0.24;100.00
12879;BME280;20617;49.476;10.986;2024-01-15T10:06:47;96896.81;;;0.27;100.00
12879;BME280;20617;49.476;10.986;2024-01-15T10:08:51;96910.50;;;0.25;100.00
12879;BME280;20617;49.476;10.986;2024-01-15T10:10:53;96901.19;;;0.22;100.00
12879;BME280;20617;49.476;10.986;2024-01-15T10:12:58;96909.69;;;0.24;100.00
12879;BME280;20617;49.476;10.986;2024-01-15T10:14:59;96911.56;;;0.14;100.00
12879;BME280;20617;49.476;10.986;2024-01-15T10:16:59;96922.91;;;0.04;100.00
12879;BME280;20617;49.476;10.986;2024-01-15T10:19:00;96923.19;;;-0.10;100.00
12879;BME280;20617;49.476;10.986;2024-01-15T10:21:02;96918.91;;;-0.09;100.00
12879;BME280;20617;49.476;10.986;2024-01-15T10:23:03;96923.13;;;-0.07;100.00
12879;BME280;20617;49.476;10.986;2024-01-15T10:25:05;96912.81;;;-0.02;100.00